Southern California Logo

Carlsbad, CA Single Family Real Estate Listings

260 Total Real Estate Listings * Click on table heading to sort
Date Posted Property Type Style Address Price Living Area Lot Size Price/Sq Ft.
2017-10-22 Single Family 4533 Hartford Place Carlsbad, CA 92010 $524,900 1,435 sq. ft. $366
2017-10-21 Single Family 2730 Ascot Carlsbad, CA 92009 $895,000 2,493 sq. ft. $359
2017-10-20 Single Family Mediterranean/Spanish 3741 Arapaho Ln Carlsbad, CA 92010 $949,900 2,805 sq. ft. $339
2017-10-20 Single Family 7219 Wisteria Way Carlsbad, CA 92011 $1,199,950 1,766 sq. ft. 8,712 sq. ft. $679
2017-10-20 Single Family 6249 Paseo Privado Carlsbad, CA 92009 $1,030,000 4,058 sq. ft. $254
2017-10-20 Single Family 2521 Crest Drive Carlsbad, CA 92008 $1,395,000 2,508 sq. ft. 33,977 sq. ft. $556
2017-10-20 Single Family Traditional 3451 Celinda Dr Carlsbad, CA 92008 $899,000 2,313 sq. ft. 16,988 sq. ft. $389
2017-10-19 Single Family 6510 Franciscan Rd Carlsbad, CA 92011 $1,495,000 2,740 sq. ft. 6,970 sq. ft. $546
2017-10-19 Single Family 1291 Las Flores Dr Carlsbad, CA 92008 $785,000 1,738 sq. ft. 10,890 sq. ft. $452
2017-10-18 Single Family 3637 Strata Dr Carlsbad, CA 92010 $848,747 2,865 sq. ft. 5,663 sq. ft. $296
2017-10-17 Single Family Mediterranean/Spanish 2428 La Costa Ave Carlsbad, CA 92009 $1,450,000 4,257 sq. ft. $341
2017-10-17 Single Family 2241 Vista La Nisa Carlsbad, CA 92009 $1,215,000 3,356 sq. ft. 6,970 sq. ft. $362
2017-10-17 Single Family 6860 Seaspray Ln Carlsbad, CA 92011 $669,000 1,376 sq. ft. 3,485 sq. ft. $486
2017-10-17 Single Family 7763 Corte Promenade Carlsbad, CA 92009 $859,000 1,758 sq. ft. 5,663 sq. ft. $489
2017-10-16 Single Family 5025 Ashberry Rd Carlsbad, CA 92008 $979,000 2,842 sq. ft. $344
2017-10-16 Single Family 6356 Huntington Carlsbad, CA 92009 $1,100,000 3,815 sq. ft. 9,583 sq. ft. $288
2017-10-16 Single Family 7008 Via Cabana Carlsbad, CA 92009 $749,000 2,057 sq. ft. 9,148 sq. ft. $364
2017-10-16 Single Family Contemporary 929 Begonia Court Carlsbad, CA 92011 $1,025,000 1,685 sq. ft. $608
2017-10-16 Single Family Mediterranean/Spanish 7571 Navigator Circle Carlsbad, CA 92011 $1,549,900 2,555 sq. ft. $607
2017-10-15 Single Family 2547 Glasgow Dr Carlsbad, CA 92010 $1,406,900 3,282 sq. ft. 8,712 sq. ft. $429
2017-10-14 Single Family 1745 Blackbird Cir Carlsbad, CA 92011 $1,099,000 2,877 sq. ft. 10,890 sq. ft. $382
2017-10-14 Single Family Mediterranean/Spanish 4832 Robertson Road Carlsbad, CA 92010 $983,295 2,959 sq. ft. 5,227 sq. ft. $332
2017-10-14 Single Family 2408 Granada Way Carlsbad, CA 92010 $649,000 1,448 sq. ft. 10,890 sq. ft. $448
2017-10-14 Single Family Mediterranean/Spanish 1606 Fairlead Ave Carlsbad, CA 92011 $629,000 1,410 sq. ft. 63,598 sq. ft. $446
2017-10-13 Single Family 1265 Belleflower Rd Carlsbad, CA 92011 $1,285,000 3,889 sq. ft. 10,454 sq. ft. $330
2017-10-13 Single Family 3137 Avenida Olmeda Carlsbad, CA 92009 $445,000 1,350 sq. ft. 294,466 sq. ft. $330
2017-10-13 Single Family 3449 Corte Altura Carlsbad, CA 92009 $1,299,000 3,511 sq. ft. 6,098 sq. ft. $370
2017-10-12 Single Family 3439 Gentle Knoll St Carlsbad, CA 92010 $859,000 2,705 sq. ft. 6,534 sq. ft. $318
2017-10-11 Single Family 2815 Vista Mariana Carlsbad, CA 92009 $835,000 2,353 sq. ft. $355
2017-10-11 Single Family 1644 Brady Carlsbad, CA 92008 $1,500,000 3,260 sq. ft. 14,375 sq. ft. $460
2017-10-11 Single Family 1846 Arroyo Willow Lane Carlsbad, CA 92011 $660,000 1,720 sq. ft. $384
2017-10-10 Single Family 2567 Glasgow Dr Carlsbad, CA 92010 $1,634,630 4,313 sq. ft. 8,712 sq. ft. $379
2017-10-10 Single Family Mediterranean/Spanish 6049 Rancho Bravado Carlsbad, CA 92009 $839,000 2,595 sq. ft. 6,534 sq. ft. $323
2017-10-10 Single Family 7132 Tern Place Carlsbad, CA 92011 $1,195,000 3,510 sq. ft. $340
2017-10-09 Single Family 3618 Buck Ridge Ave Carlsbad, CA 92010 $1,175,000 3,725 sq. ft. 6,534 sq. ft. $315
2017-10-09 Single Family Mediterranean/Spanish 6418 Torreyanna Circle Carlsbad, CA 92011 $1,175,000 2,735 sq. ft. 5,663 sq. ft. $430
2017-10-09 Single Family Mediterranean/Spanish 6862 Citrine Drive Carlsbad, CA 92009 $1,499,000 4,913 sq. ft. 15,246 sq. ft. $305
2017-10-08 Single Family 6250 Paseo Elegancia Carlsbad, CA 92009 $1,500,000 4,476 sq. ft. $335
2017-10-07 Single Family Contemporary 5964 Black Rail Road Carlsbad, CA 92011 $949,000 3,281 sq. ft. $289
2017-10-07 Single Family Custom Built 6719 Abanto St Carlsbad, CA 92009 $1,999,000 5,518 sq. ft. 13,939 sq. ft. $362
2017-10-07 Single Family Tudor/French Normandy 7395 Alicante Road Carlsbad, CA 92009 $948,000 3,761 sq. ft. $252
2017-10-07 Single Family Mediterranean/Spanish 1378 Nightshade Rd Carlsbad, CA 92011 $959,000 2,470 sq. ft. 8,712 sq. ft. $388
2017-10-07 Single Family 4015 Canario St Carlsbad, CA 92008 $535,000 1,360 sq. ft. $393
2017-10-07 Single Family 3230 Sitio Oceano Carlsbad, CA 92009 $1,396,000 3,641 sq. ft. 8,276 sq. ft. $383
2017-10-06 Single Family 5201 Shore Dr Carlsbad, CA 92008 $5,900,880 2,087 sq. ft. $2,827
2017-10-06 Single Family 7876 Via Adelfa Carlsbad, CA 92009 $1,095,000 2,848 sq. ft. $384
2017-10-06 Single Family 5138 Delaney Ct Carlsbad, CA 92008 $999,000 2,856 sq. ft. 6,534 sq. ft. $350
2017-10-06 Single Family 1736 Tamarack Ave Carlsbad, CA 92008 $835,900 1,929 sq. ft. 8,712 sq. ft. $433
2017-10-06 Single Family 3877 Althea Carlsbad, CA 92008 $819,900 2,406 sq. ft. 9,148 sq. ft. $341
2017-10-06 Single Family 5261 Milton Road Carlsbad, CA 92008 $977,000 3,141 sq. ft. $311
2017-10-05 Single Family 3211 Celinda Carlsbad, CA 92008 $1,295,000 3,640 sq. ft. $356
2017-10-05 Single Family 5551 Foxtail Loop Carlsbad, CA 92010 $749,000 2,335 sq. ft. 7,405 sq. ft. $321
2017-10-05 Single Family Contemporary 636 Seaward Ave Carlsbad, CA 92011 $1,199,900 2,468 sq. ft. $486
2017-10-05 Single Family 4371 Yosemite Street Carlsbad, CA 92010 $725,000 1,595 sq. ft. $455
2017-10-05 Single Family 969 Blackstilt Ct Carlsbad, CA 92011 $1,299,000 3,507 sq. ft. 8,276 sq. ft. $370
2017-10-05 Single Family 5313 Don Miguel Dr Carlsbad, CA 92010 $349,000 1,440 sq. ft. 3,566,693 sq. ft. $242
2017-10-05 Single Family 2917 Via Pepita Carlsbad, CA 92009 $829,900 1,848 sq. ft. 9,583 sq. ft. $449
2017-10-04 Single Family 2707 Tiburon Ave Carlsbad, CA 92010 $769,990 1,855 sq. ft. 7,841 sq. ft. $415
2017-10-04 Single Family 7086 Estrella De Mar Carlsbad, CA 92009 $1,129,000 3,400 sq. ft. $332
2017-10-03 Single Family Mediterranean/Spanish 363 Tamarack Carlsbad, CA 92008 $900,000 1,360 sq. ft. $662
2017-10-03 Single Family 3840 Skyline Rd Carlsbad, CA 92008 $1,450,000 2,171 sq. ft. 54,886 sq. ft. $668
2017-10-03 Single Family 1318 Savannah Ln Carlsbad, CA 92011 $1,125,000 2,647 sq. ft. 8,276 sq. ft. $425
2017-10-02 Single Family 3462 Camino Largo Carlsbad, CA 92009 $1,175,000 2,100 sq. ft. $560
2017-10-02 Single Family 2577 Corte Casitas Carlsbad, CA 92009 $579,000 1,651 sq. ft. $351
2017-10-02 Single Family Mediterranean/Spanish 1037 Goldeneye View Carlsbad, CA 92011 $1,119,000 2,706 sq. ft. 8,712 sq. ft. $414
2017-10-02 Single Family Traditional 3758 Glen Avenue Carlsbad, CA 92010 $912,000 1,998 sq. ft. $456
2017-10-01 Single Family 2697 Coventry Road Carlsbad, CA 92010 $539,000 1,201 sq. ft. $449
2017-10-01 Single Family 1420 Pine Ave Carlsbad, CA 92008 $1,100,000 2,929 sq. ft. 13,068 sq. ft. $376
2017-09-30 Single Family 1358 Nightshade Rd Carlsbad, CA 92011 $1,099,000 2,848 sq. ft. 9,583 sq. ft. $386
2017-09-29 Single Family Contemporary 2407 La Macarena Ave Carlsbad, CA 92009 $889,000 1,895 sq. ft. 6,970 sq. ft. $469
2017-09-29 Single Family 7814 Paseo La Jolla Carlsbad, CA 92009 $849,000 2,217 sq. ft. 4,792 sq. ft. $383
2017-09-29 Single Family 4792 Beachwood Ct Carlsbad, CA 92008 $899,000 2,352 sq. ft. $382
2017-09-29 Single Family 2570 Luciernaga St Carlsbad, CA 92009 $639,900 1,420 sq. ft. $451
2017-09-28 Single Family 6902 Tradewinds Dr Carlsbad, CA 92011 $1,275,000 2,261 sq. ft. 151,153 sq. ft. $564
2017-09-28 Single Family Mediterranean/Spanish 2756 Avalon Ave Carlsbad, CA 92010 $812,000 2,067 sq. ft. $393
2017-09-28 Single Family Contemporary 4398 Yuki Carlsbad, CA 92008 $1,495,000 2,800 sq. ft. 19,166 sq. ft. $534
2017-09-27 Single Family 4737 Crater Rim Rd Carlsbad, CA 92010 $825,000 2,170 sq. ft. 4,792 sq. ft. $380
2017-09-27 Single Family 2701 La Gran Via Carlsbad, CA 92009 $889,000 2,328 sq. ft. $382
2017-09-27 Single Family 3201 Azahar Pl Carlsbad, CA 92009 $850,000 2,141 sq. ft. 10,890 sq. ft. $397
2017-09-27 Single Family 7039 Llama St Carlsbad, CA 92009 $999,990 3,197 sq. ft. 11,326 sq. ft. $313
2017-09-27 Single Family 2845 Cebu Pl Carlsbad, CA 92009 $629,000 1,369 sq. ft. $459
2017-09-27 Single Family 7643 Nueva Castilla Way Carlsbad, CA 92009 $849,900 1,758 sq. ft. 9,148 sq. ft. $483
2017-09-26 Single Family Cottage 135 Juniper Ave Carlsbad, CA 92008 $1,650,000 1,659 sq. ft. 5,663 sq. ft. $995
2017-09-26 Single Family 3315 Don Tomaso Dr Carlsbad, CA 92010 $335,000 1,440 sq. ft. $233
2017-09-26 Single Family 7081 Murillo Ln Carlsbad, CA 92009 $837,000 2,372 sq. ft. 5,663 sq. ft. $353
2017-09-26 Single Family 7008 Corintia St Carlsbad, CA 92009 $1,735,000 4,212 sq. ft. 10,454 sq. ft. $412
2017-09-26 Single Family 4691 Telescope Ave Carlsbad, CA 92008 $1,199,000 2,336 sq. ft. $513
2017-09-25 Single Family Mediterranean/Spanish 6709 Limonite Court Carlsbad, CA 92009 $959,000 2,448 sq. ft. 6,098 sq. ft. $392
2017-09-25 Single Family 6435 Alexandri Cir Carlsbad, CA 92011 $689,900 2,166 sq. ft. 38,768 sq. ft. $319
2017-09-23 Single Family 7575 Cadencia Street Carlsbad, CA 92009 $788,000 1,761 sq. ft. $447
2017-09-23 Single Family 6420 Arches Way Carlsbad, CA 92009 $895,000 2,183 sq. ft. 6,098 sq. ft. $410
2017-09-23 Single Family 3178 Levante St Carlsbad, CA 92009 $839,000 2,781 sq. ft. $302
2017-09-22 Single Family Traditional 7411 Brava Carlsbad, CA 92009 $779,000 1,827 sq. ft. 4,356 sq. ft. $426
2017-09-22 Single Family 6252 Dartington Way Carlsbad, CA 92009 $949,000 2,708 sq. ft. 4,356 sq. ft. $350
2017-09-22 Single Family 6991 Zebrina Pl Carlsbad, CA 92011 $974,000 3,321 sq. ft. 10,454 sq. ft. $293
2017-09-22 Single Family Cape Cod 6492 Wayfinders Ct Carlsbad, CA 92011 $1,239,000 3,303 sq. ft. 8,712 sq. ft. $375
2017-09-22 Single Family 2715 York Carlsbad, CA 92010 $739,900 1,689 sq. ft. $438
2017-09-21 Single Family 7318 Esfera St Carlsbad, CA 92009 $849,950 2,428 sq. ft. 8,276 sq. ft. $350
2017-09-21 Single Family 4213 Isle Drive Carlsbad, CA 92008 $899,000 2,397 sq. ft. 10,890 sq. ft. $375
2017-09-21 Single Family 1866 Forest Ave Carlsbad, CA 92008 $825,000 1,757 sq. ft. 7,405 sq. ft. $470
2017-09-21 Single Family 3805 Alder Ave Carlsbad, CA 92008 $975,000 2,208 sq. ft. 57,499 sq. ft. $442
2017-09-21 Single Family 4410 Trieste Dr Carlsbad, CA 92010 $749,000 1,971 sq. ft. 7,841 sq. ft. $380
2017-09-21 Single Family 557 Laguna Carlsbad, CA 92008 $749,888 1,592 sq. ft. $471
2017-09-20 Single Family 6433 Topmast Drive Carlsbad, CA 92011 $1,099,000 3,054 sq. ft. $360
2017-09-19 Single Family Ranch 7034 Almaden Carlsbad, CA 92009 $1,385,000 3,700 sq. ft. $374
2017-09-19 Single Family 3572 Avenida Pantera Carlsbad, CA 92009 $1,748,890 4,025 sq. ft. 25,265 sq. ft. $435
2017-09-19 Single Family 6754 Camino Del Prado Carlsbad, CA 92011 $580,000 1,204 sq. ft. 3,485 sq. ft. $482
2017-09-19 Single Family Contemporary 2632 Obelisco Place Carlsbad, CA 92009 $2,495,000 5,000 sq. ft. $499
2017-09-18 Single Family 7110 El Fuerte St Carlsbad, CA 92009 $1,049,000 4,040 sq. ft. 9,148 sq. ft. $260
2017-09-18 Single Family Mediterranean/Spanish 4394 Yuki Ln Carlsbad, CA 92008 $1,480,000 3,532 sq. ft. $419
2017-09-16 Single Family Contemporary 4803 Windjammer Way Carlsbad, CA 92008 $814,900 1,403 sq. ft. 3,485 sq. ft. $581
2017-09-15 Single Family 951 Boxwood Crt Carlsbad, CA 92011 $649,000 1,433 sq. ft. $453
2017-09-15 Single Family Contemporary 7572 Gibraltar Street Carlsbad, CA 92009 $759,000 1,900 sq. ft. $399
2017-09-15 Single Family 2862 Rancho Cortes Carlsbad, CA 92009 $1,389,900 4,284 sq. ft. 15,246 sq. ft. $324
2017-09-15 Single Family 6836 Korite Pl Carlsbad, CA 92009 $1,165,000 3,779 sq. ft. 7,405 sq. ft. $308
2017-09-15 Single Family 3622 Buck Ridge Ave Carlsbad, CA 92010 $899,900 1,989 sq. ft. 6,970 sq. ft. $452
2017-09-15 Single Family Mediterranean/Spanish 6965 Corte Langosta Carlsbad, CA 92009 $1,775,000 4,792 sq. ft. 15,246 sq. ft. $370
2017-09-15 Single Family Ranch 2566 Discovery Rd Carlsbad, CA 92009 $1,298,000 3,480 sq. ft. $373
2017-09-15 Single Family Contemporary 3950 Holly Brae Lane Carlsbad, CA 92008 $1,175,000 2,480 sq. ft. $474
2017-09-14 Single Family 2800 Rancho Costero Carlsbad, CA 92009 $1,599,900 3,743 sq. ft. 16,988 sq. ft. $427
2017-09-13 Single Family 6714 Blue Point Drive Carlsbad, CA 92011 $999,900 2,887 sq. ft. 8,712 sq. ft. $346
2017-09-13 Single Family 2402 Altisma Way Carlsbad, CA 92009 $439,900 1,620 sq. ft. 96,703 sq. ft. $272
2017-09-13 Single Family 1741 Tamarack Ave Carlsbad, CA 92008 $798,900 2,124 sq. ft. 8,712 sq. ft. $376
2017-09-13 Single Family 3343 Cuesta Place Carlsbad, CA 92009 $609,000 1,291 sq. ft. $472
2017-09-13 Single Family Contemporary 1214 Mariposa Rd Carlsbad, CA 92011 $1,069,000 3,200 sq. ft. $334
2017-09-12 Single Family Mediterranean/Spanish 3461 Ravine Dr Carlsbad, CA 92010 $879,000 2,597 sq. ft. 9,148 sq. ft. $338
2017-09-12 Single Family 7223 El Fuerte Carlsbad, CA 92009 $2,595,000 4,600 sq. ft. 27,443 sq. ft. $564
2017-09-12 Single Family 3640 Harding St Carlsbad, CA 92008 $709,900 1,152 sq. ft. $616
2017-09-12 Single Family 2122 Pine Crest Way Carlsbad, CA 92008 $812,000 2,232 sq. ft. 6,534 sq. ft. $364
2017-09-11 Single Family 4210 Sierra Morena Ave Carlsbad, CA 92010 $619,000 1,471 sq. ft. $421
2017-09-11 Single Family 2459 Tuttle Street Carlsbad, CA 92008 $1,300,000 2,249 sq. ft. 17,424 sq. ft. $578
2017-09-11 Single Family Ranch 3265 Maezel Ln Carlsbad, CA 92008 $735,000 1,275 sq. ft. 7,841 sq. ft. $576
2017-09-11 Single Family Contemporary 6258 Topiary Carlsbad, CA 92009 $1,120,000 3,272 sq. ft. $342
2017-09-09 Single Family 3561 Donna Dr Carlsbad, CA 92008 $1,050,000 2,832 sq. ft. $371
2017-09-09 Single Family 1342 Magnolia Ave Carlsbad, CA 92008 $939,900 2,513 sq. ft. 14,375 sq. ft. $374
2017-09-08 Single Family 1339 Knowles Ave Carlsbad, CA 92008 $999,000 2,171 sq. ft. $460
2017-09-08 Single Family 7061 Sitio Frontera Carlsbad, CA 92009 $1,099,000 3,316 sq. ft. $331
2017-09-08 Single Family 2055 Linda Ln Carlsbad, CA 92008 $928,000 2,124 sq. ft. 7,405 sq. ft. $437
2017-09-08 Single Family 2342 Lapis Rd Carlsbad, CA 92009 $1,059,000 3,167 sq. ft. 10,890 sq. ft. $334
2017-09-07 Single Family 1537 Martingale Ct Carlsbad, CA 92011 $1,149,000 3,347 sq. ft. 7,405 sq. ft. $343
2017-09-07 Single Family 7323 Estrella De Mar Carlsbad, CA 92009 $395,000 584 sq. ft. $676
2017-09-07 Single Family 1759 Oriole Ct Carlsbad, CA 92011 $949,000 2,409 sq. ft. 7,841 sq. ft. $394
2017-09-07 Single Family 6827 Corintia St Carlsbad, CA 92009 $899,000 2,588 sq. ft. 10,019 sq. ft. $347
2017-09-07 Single Family Mediterranean/Spanish 6572 Bluebonnet Dr Carlsbad, CA 92011 $1,129,000 3,065 sq. ft. $368
2017-09-06 Single Family 2776 Carlsbad Blvd 101 Carlsbad, CA 92008 $889,000 1,558 sq. ft. $571
2017-09-06 Single Family 7564 Navigator Circle Carlsbad, CA 92011 $1,999,900 4,335 sq. ft. 8,712 sq. ft. $461
2017-09-06 Single Family 6774 Lonicera St Carlsbad, CA 92011 $1,294,900 3,315 sq. ft. 20,909 sq. ft. $391
2017-09-05 Single Family 4350 La Portalada Dr Carlsbad, CA 92010 $859,995 1,856 sq. ft. 7,841 sq. ft. $463
2017-09-04 Single Family Mediterranean/Spanish 4535 Sunnyhill Dr Carlsbad, CA 92008 $1,389,000 2,053 sq. ft. 18,731 sq. ft. $677
2017-09-02 Single Family 3457 Highland Dr Carlsbad, CA 92008 $1,995,000 4,030 sq. ft. $495
2017-09-02 Single Family Mediterranean/Spanish 3764 Adams St Carlsbad, CA 92008 $1,099,000 2,587 sq. ft. 11,761 sq. ft. $425
2017-09-02 Single Family Modern 2161 Twain Ave Carlsbad, CA 92008 $1,425,000 3,747 sq. ft. 7,405 sq. ft. $380
2017-09-02 Single Family Modern 3257 Avenida De Sueno Carlsbad, CA 92009 $1,299,000 4,040 sq. ft. 9,583 sq. ft. $322
2017-09-02 Single Family 2786 Unicornio St Carlsbad, CA 92009 $960,000 2,762 sq. ft. 5,663 sq. ft. $348
2017-09-02 Single Family 7081 Aviara Dr Carlsbad, CA 92011 $1,949,900 4,524 sq. ft. 17,424 sq. ft. $431
2017-08-29 Single Family Custom Built 4279 Sunnyhill Carlsbad, CA 92008 $1,920,000 5,540 sq. ft. 22,216 sq. ft. $347
2017-08-26 Single Family Ranch 930 Magnolia Ave Carlsbad, CA 92008 $699,000 1,552 sq. ft. $450
2017-08-26 Single Family Traditional 6481 Camino Del Parque Carlsbad, CA 92011 $550,000 1,270 sq. ft. $433
2017-08-25 Single Family 7027 Cinnamon Teal St Carlsbad, CA 92011 $1,379,000 3,300 sq. ft. $418
2017-08-25 Single Family 3742 Longview Dr Carlsbad, CA 92010 $829,000 1,704 sq. ft. 7,405 sq. ft. $486
2017-08-25 Single Family Tudor/French Normandy 7675 Circulo Sequoia Carlsbad, CA 92009 $1,485,000 4,000 sq. ft. 9,148 sq. ft. $371
2017-08-24 Single Family 6440 Amethyst Way Carlsbad, CA 92011 $839,000 2,570 sq. ft. 4,792 sq. ft. $326
2017-08-21 Single Family Custom Built 2822 Luciernaga Street Carlsbad, CA 92009 $799,900 2,122 sq. ft. 11,326 sq. ft. $377
2017-08-21 Single Family 7033 Crystalline Drive Carlsbad, CA 92011 $1,379,000 3,377 sq. ft. $408
2017-08-21 Single Family 2208 Recodo Ct Carlsbad, CA 92009 $949,000 2,903 sq. ft. 8,276 sq. ft. $327
2017-08-20 Single Family Mediterranean/Spanish 4099 Sunnyhill Drive Carlsbad, CA 92008 $1,250,000 2,401 sq. ft. 15,246 sq. ft. $521
2017-08-19 Single Family 7925 Via Ensenada Carlsbad, CA 92009 $974,900 2,655 sq. ft. 13,504 sq. ft. $367
2017-08-18 Single Family 3572 Flat Rock Carlsbad, CA 92010 $825,000 2,691 sq. ft. 5,227 sq. ft. $307
2017-08-18 Single Family 6235 Via Trato Carlsbad, CA 92009 $485,000 1,292 sq. ft. $375
2017-08-18 Single Family 6876 Shearwaters Dr Carlsbad, CA 92011 $779,999 1,700 sq. ft. 4,356 sq. ft. $459
2017-08-18 Single Family 2867 Rancho Diamonte Carlsbad, CA 92009 $1,499,900 4,476 sq. ft. $335
2017-08-18 Single Family 7229 Almaden Lane Carlsbad, CA 92009 $4,490,000 6,000 sq. ft. $748
2017-08-18 Single Family 7539 Circulo Sequoia Carlsbad, CA 92009 $1,325,000 3,743 sq. ft. $354
2017-08-17 Single Family 3511 Sitio Baya Carlsbad, CA 92009 $925,000 1,988 sq. ft. 8,712 sq. ft. $465
2017-08-16 Single Family 1548 Sapphire Dr Carlsbad, CA 92011 $895,000 2,336 sq. ft. 5,663 sq. ft. $383
2017-08-16 Single Family 1046 Turnstone Carlsbad, CA 92011 $1,230,000 3,362 sq. ft. $366
2017-08-15 Single Family Mediterranean/Spanish 6446 Merlin Dr Carlsbad, CA 92011 $990,000 2,392 sq. ft. $414
2017-08-15 Single Family 2291 Paseo Saucedal Carlsbad, CA 92009 $918,888 1,963 sq. ft. 5,227 sq. ft. $468
2017-08-15 Single Family 7353 Corte Tomillo Carlsbad, CA 92009 $2,195,000 4,714 sq. ft. 11,761 sq. ft. $466
2017-08-14 Single Family 7968 Sitio Fresca Carlsbad, CA 92009 $2,200,000 5,242 sq. ft. $420
2017-08-13 Single Family 6947 Mimosa Drive Carlsbad, CA 92011 $1,090,000 3,306 sq. ft. 9,148 sq. ft. $330
2017-08-12 Single Family Mediterranean/Spanish 7125 Argonauta Way Carlsbad, CA 92009 $1,598,000 3,866 sq. ft. 21,780 sq. ft. $413
2017-08-11 Single Family 6269 Arbor Rose Carlsbad, CA 92009 $1,149,000 3,397 sq. ft. $338
2017-08-11 Single Family 2916 Avenida Pimentera Carlsbad, CA 92009 $1,189,000 3,403 sq. ft. 7,405 sq. ft. $349
2017-08-10 Single Family Mediterranean/Spanish 1322 Alcyon Ct Carlsbad, CA 92011 $1,449,000 3,779 sq. ft. 14,375 sq. ft. $383
2017-08-10 Single Family 7826 Quebrada Cir Carlsbad, CA 92009 $899,000 2,122 sq. ft. 11,326 sq. ft. $424
2017-08-09 Single Family 2359 Terraza Ribera Carlsbad, CA 92009 $799,000 2,372 sq. ft. $337
2017-08-09 Single Family Contemporary 229 Chinquapin Ave Carlsbad, CA 92008 $1,599,000 3,849 sq. ft. 4,356 sq. ft. $415
2017-08-09 Single Family Cape Cod 4329 Hillside Carlsbad, CA 92008 $719,000 1,412 sq. ft. 14,810 sq. ft. $509
2017-08-08 Single Family 7633 Romeria Street Carlsbad, CA 92009 $949,000 2,422 sq. ft. 8,712 sq. ft. $392
2017-08-08 Single Family 4846 Kelly Drive Carlsbad, CA 92008 $805,000 1,879 sq. ft. 12,632 sq. ft. $428
2017-08-08 Single Family Mediterranean/Spanish 2952 Doreet Way Carlsbad, CA 92008 $798,000 2,519 sq. ft. $317
2017-08-08 Single Family 7341 Altiva Pl Carlsbad, CA 92009 $1,195,000 4,029 sq. ft. 13,504 sq. ft. $297
2017-08-07 Single Family 2413 El Bosque Ave Carlsbad, CA 92009 $935,000 2,119 sq. ft. $441
2017-08-02 Single Family 4304 Sierra Morena Ave Carlsbad, CA 92010 $560,000 1,581 sq. ft. 3,049 sq. ft. $354
2017-08-02 Single Family Mediterranean/Spanish 7035 Corintia Street Carlsbad, CA 92009 $3,600,000 7,520 sq. ft. $479
2017-08-02 Single Family 6927 Amber Ln Carlsbad, CA 92009 $1,745,000 3,915 sq. ft. 11,326 sq. ft. $446
2017-07-31 Single Family Engilsh 3566 Calle Palmito Carlsbad, CA 92009 $1,899,000 5,100 sq. ft. 11,761 sq. ft. $372
2017-07-31 Single Family 7363 Circulo Ronda Carlsbad, CA 92009 $999,000 2,228 sq. ft. 3,920 sq. ft. $448
2017-07-30 Single Family Mediterranean/Spanish 4712 Borden Court Carlsbad, CA 92010 $1,230,340 4,427 sq. ft. 6,098 sq. ft. $278
2017-07-28 Single Family 1534 Magnolia Ave Carlsbad, CA 92008 $2,399,000 1,428 sq. ft. 75,359 sq. ft. $1,680
2017-07-27 Single Family Mediterranean/Spanish 2919 Via Pepita Carlsbad, CA 92009 $940,000 2,346 sq. ft. 9,583 sq. ft. $401
2017-07-26 Single Family 5067 Shore Dr Carlsbad, CA 92008 $7,695,000 5,675 sq. ft. 16,117 sq. ft. $1,356
2017-07-25 Single Family 2207 Alga Rd Carlsbad, CA 92009 $1,100,000 3,500 sq. ft. 16,553 sq. ft. $314
2017-07-25 Single Family Traditional 2648 La Costa Avenue Carlsbad, CA 92009 $1,150,000 3,020 sq. ft. 14,375 sq. ft. $381
2017-07-24 Single Family 3732 Arapaho Pl Carlsbad, CA 92010 $949,900 2,822 sq. ft. 5,227 sq. ft. $337
2017-07-23 Single Family 2871 Rancho Cortes Carlsbad, CA 92009 $1,385,000 4,843 sq. ft. 12,197 sq. ft. $286
2017-07-22 Single Family 2916/2924 Highland Carlsbad, CA 92008 $3,350,000 1,208 sq. ft. $2,773
2017-07-21 Single Family Cape Cod 627 Coral Reef Ave Carlsbad, CA 92011 $1,199,000 2,385 sq. ft. 3,920 sq. ft. $503
2017-07-20 Single Family 5117 Don Rodolfo Carlsbad, CA 92010 $549,000 1,920 sq. ft. $286
2017-07-18 Single Family 2323 Kimberly Court Carlsbad, CA 92008 $1,175,000 3,588 sq. ft. $327
2017-07-16 Single Family 1885 High Ridge Carlsbad, CA 92008 $799,900 2,355 sq. ft. $340
2017-07-14 Single Family Mediterranean/Spanish 7477 Mermaid Lane Carlsbad, CA 92011 $1,189,000 2,225 sq. ft. $534
2017-07-13 Single Family 3970 Stella Maris Lane Carlsbad, CA 92008 $995,000 2,024 sq. ft. $492
2017-07-13 Single Family 6783 Follette St Carlsbad, CA 92011 $1,050,000 2,691 sq. ft. 10,019 sq. ft. $390
2017-07-13 Single Family Mediterranean/Spanish 6754 Lemon Leaf Dr Carlsbad, CA 92011 $1,049,000 3,324 sq. ft. 13,504 sq. ft. $316
2017-07-12 Single Family Mediterranean/Spanish 2828 Carrillo Way Carlsbad, CA 92009 $1,249,900 3,758 sq. ft. 10,890 sq. ft. $333
2017-07-08 Single Family 6423 Terraza Portico Carlsbad, CA 92009 $599,900 1,538 sq. ft. 106,286 sq. ft. $390
2017-07-07 Single Family 5118 Don Ricardo Dr Carlsbad, CA 92010 $414,900 1,512 sq. ft. $274
2017-07-07 Single Family 7161 Aviara Drive Carlsbad, CA 92011 $2,700,000 4,200 sq. ft. 13,939 sq. ft. $643
2017-06-30 Single Family 7731 Rocio St Carlsbad, CA 92009 $1,049,000 3,131 sq. ft. 10,454 sq. ft. $335
2017-06-28 Single Family Mediterranean/Spanish 6355 Paseo Descanso Carlsbad, CA 92009 $1,225,000 3,852 sq. ft. 23,522 sq. ft. $318
2017-06-28 Single Family 1795 Pointe Ave Carlsbad, CA 92008 $975,000 2,997 sq. ft. 17,424 sq. ft. $325
2017-06-23 Single Family Mediterranean/Spanish 4208 Sierra Morena Carlsbad, CA 92010 $679,000 1,979 sq. ft. $343
2017-06-22 Single Family 3664 Maria Lane Carlsbad, CA 92008 $4,690,000 8,000 sq. ft. 34,412 sq. ft. $586
2017-06-21 Single Family 3485 Camino Valencia Carlsbad, CA 92009 $597,000 1,932 sq. ft. $309
2017-06-20 Single Family Modern 2425 Jefferson Street Carlsbad, CA 92008 $2,150,000 5,200 sq. ft. 14,810 sq. ft. $413
2017-06-20 Single Family 4961 Cindy Ave Carlsbad, CA 92008 $299,999 1,440 sq. ft. 5,227 sq. ft. $208
2017-06-15 Single Family 3594 Granite Ct Carlsbad, CA 92010 $899,900 2,961 sq. ft. 6,534 sq. ft. $304
2017-06-15 Single Family Mediterranean/Spanish 2820 Cedarwood Way Carlsbad, CA 92008 $759,900 2,248 sq. ft. $338
2017-06-15 Single Family 1787 Blackbird Cir Carlsbad, CA 92011 $935,000 2,877 sq. ft. 5,663 sq. ft. $325
2017-06-10 Single Family Custom Built 7211 Obelisco Carlsbad, CA 92009 $2,600,000 6,930 sq. ft. $375
2017-06-04 Single Family Mediterranean/Spanish 4724 Borden Court Carlsbad, CA 92010 $1,276,360 4,686 sq. ft. 6,534 sq. ft. $272
2017-06-03 Single Family Mediterranean/Spanish 4825 Portola Court Carlsbad, CA 92010 $962,315 2,949 sq. ft. $326
2017-05-31 Single Family 2583 Glasgow Carlsbad, CA 92010 $1,450,000 4,313 sq. ft. 8,712 sq. ft. $336
2017-05-31 Single Family 4042 Garfield St Carlsbad, CA 92008 $1,049,000 1,514 sq. ft. $693
2017-05-30 Single Family 2066 Mar Azul Way Carlsbad, CA 92009 $1,844,000 4,881 sq. ft. 12,197 sq. ft. $378
2017-05-30 Single Family Mediterranean/Spanish 2650 Acuna Court Carlsbad, CA 92009 $2,350,000 5,140 sq. ft. 25,700 sq. ft. $457
2017-05-29 Single Family 1665 Amante Ct Carlsbad, CA 92011 $1,195,000 3,697 sq. ft. 7,841 sq. ft. $323
2017-05-26 Single Family 4650 Park Dr Carlsbad, CA 92008 $1,490,000 4,000 sq. ft. 93,654 sq. ft. $372
2017-05-18 Single Family 2943 Jefferson Carlsbad, CA 92008 $1,250,000 888 sq. ft. 6,970 sq. ft. $1,408
2017-05-17 Single Family 5530 Coyote Ct Carlsbad, CA 92010 $830,000 2,567 sq. ft. $323
2017-05-16 Single Family 7328 San Bartolo St Carlsbad, CA 92011 $299,000 1,493 sq. ft. $200
2017-05-12 Single Family Cottage 160 Cherry Ave Carlsbad, CA 92008 $1,375,000 837 sq. ft. 6,970 sq. ft. $1,643
2017-05-06 Single Family 4728 Borden Court Carlsbad, CA 92010 $1,199,580 4,427 sq. ft. 6,098 sq. ft. $271
2017-04-30 Single Family 2579 Wellspring Street Carlsbad, CA 92010 $1,097,040 3,025 sq. ft. $363
2017-04-28 Single Family 2781 James Carlsbad, CA 92008 $1,265,000 3,523 sq. ft. 11,761 sq. ft. $359
2017-04-27 Single Family 5395 El Arbol Drive Carlsbad, CA 92008 $1,600,000 1,492 sq. ft. 10,019 sq. ft. $1,072
2017-04-25 Single Family Contemporary 6777 Mallee St Carlsbad, CA 92011 $1,199,900 3,697 sq. ft. $325
2017-04-24 Single Family 2605 Madison St Carlsbad, CA 92008 $1,095,000 1,170 sq. ft. 7,405 sq. ft. $936
2017-04-19 Single Family 2502 Navarra Carlsbad, CA 92009 $499,850 1,327 sq. ft. $377
2017-04-17 Single Family Ranch 2504 Jacaranda Ave Carlsbad, CA 92009 $779,000 2,213 sq. ft. 9,148 sq. ft. $352
2017-04-13 Single Family 3268 Avenida La Cima Carlsbad, CA 92009 $1,449,900 4,574 sq. ft. 8,712 sq. ft. $317
2017-04-03 Single Family 6319 Montecito Carlsbad, CA 92009 $1,030,000 3,815 sq. ft. 7,405 sq. ft. $270
2017-04-03 Single Family 7323 Bolero Street Carlsbad, CA 92009 $2,788,890 7,000 sq. ft. 50,530 sq. ft. $398
2017-03-23 Single Family 1546 Oak Ave Carlsbad, CA 92008 $1,750,000 4,867 sq. ft. 13,939 sq. ft. $360
2017-03-16 Single Family 2841 Torry Court Carlsbad, CA 92009 $820,000 2,598 sq. ft. $316
2017-02-12 Single Family Ranch 4105 Highland Drive Carlsbad, CA 92008 $1,049,000 1,452 sq. ft. 14,810 sq. ft. $722
2017-01-20 Single Family Mediterranean/Spanish 3065 Ocean Carlsbad, CA 92008 $6,950,000 3,587 sq. ft. 9,148 sq. ft. $1,938
2016-05-02 Single Family 2499 Jefferson Carlsbad, CA 92008 $3,300,000 1,545 sq. ft. 43,560 sq. ft. $2,136